createdAt,value
2023-05-23T00:01:59.780Z,16
2023-05-23T00:04:01.703Z,16.1
2023-05-23T00:06:03.375Z,16.1
2023-05-23T00:08:08.464Z,16
2023-05-23T00:10:10.300Z,16.1
2023-05-23T00:12:12.077Z,16.1
2023-05-23T00:14:13.876Z,16.1
2023-05-23T00:27:30.491Z,16.1
2023-05-23T00:29:32.317Z,16.1
2023-05-23T00:31:34.234Z,16
2023-05-23T00:33:35.920Z,15.9
2023-05-23T00:35:41.332Z,15.8
2023-05-23T00:37:42.928Z,16
2023-05-23T00:41:46.437Z,15.8
2023-05-23T00:43:48.241Z,15.9
2023-05-23T00:45:50.065Z,15.8
2023-05-23T00:47:51.858Z,15.8
2023-05-23T00:49:56.943Z,15.6
2023-05-23T00:51:58.729Z,15.7
2023-05-23T00:54:00.520Z,15.6
2023-05-23T00:56:02.355Z,15.5
2023-05-23T00:58:04.133Z,15.4
2023-05-23T01:00:05.939Z,15.3
2023-05-23T01:02:07.859Z,15.3
2023-05-23T01:12:20.037Z,15.2
2023-05-23T01:14:21.836Z,15.2
2023-05-23T01:16:23.662Z,15.3
2023-05-23T01:18:28.681Z,15.3
2023-05-23T01:20:30.470Z,15.5
2023-05-23T01:22:32.294Z,15.3
2023-05-23T01:23:34.825Z,15.3
2023-05-23T01:25:36.606Z,15.3
2023-05-23T01:27:38.417Z,15.3
2023-05-23T01:29:40.241Z,15.2
2023-05-23T01:33:47.124Z,15.3
2023-05-23T01:35:48.894Z,15.3
2023-05-23T01:37:50.686Z,15.2
2023-05-23T01:39:52.507Z,15.2
2023-05-23T01:41:54.297Z,15
2023-05-23T01:43:56.122Z,15.1
2023-05-23T01:46:01.214Z,15.2
2023-05-23T01:48:03.051Z,15.3
2023-05-23T01:50:04.768Z,15.2
2023-05-23T01:52:06.579Z,15.2
2023-05-23T01:54:08.377Z,15.3
2023-05-23T01:56:10.171Z,15.2
2023-05-23T01:58:11.974Z,15.1
2023-05-23T02:00:17.030Z,15.1
2023-05-23T02:02:18.816Z,15.2
2023-05-23T02:04:20.631Z,15.4
2023-05-23T02:06:22.431Z,15.2
2023-05-23T02:14:32.894Z,15.1
2023-05-23T02:19:39.047Z,15.1
2023-05-23T02:23:42.604Z,15.1
2023-05-23T02:27:49.471Z,15.1
2023-05-23T02:31:53.081Z,15.1
2023-05-23T02:33:54.867Z,15.1
2023-05-23T02:35:56.651Z,15.2
2023-05-23T02:37:58.471Z,15.1
2023-05-23T02:40:00.321Z,15.1
2023-05-23T02:42:05.300Z,15.1
2023-05-23T02:48:10.713Z,15.1
2023-05-23T02:50:12.495Z,14.9
2023-05-23T02:52:14.319Z,15.1
2023-05-23T02:54:16.156Z,15
2023-05-23T02:56:21.197Z,15
2023-05-23T02:58:23.016Z,15.1
2023-05-23T03:00:24.832Z,14.9
2023-05-23T03:02:26.664Z,14.8
2023-05-23T03:04:28.498Z,14.9
2023-05-23T03:08:32.096Z,15
2023-05-23T03:10:37.104Z,14.9
2023-05-23T03:12:38.940Z,14.8
2023-05-23T03:19:11.218Z,14.8
2023-05-23T03:21:12.952Z,14.9
2023-05-23T03:23:18.014Z,15
2023-05-23T03:25:19.815Z,15
2023-05-23T03:37:33.898Z,14.9
2023-05-23T03:43:39.263Z,15
2023-05-23T03:45:41.472Z,15
2023-05-23T03:47:42.927Z,14.8
2023-05-23T03:49:44.665Z,14.9
2023-05-23T03:51:49.769Z,14.9
2023-05-23T03:53:51.534Z,14.7
2023-05-23T03:55:53.339Z,14.9
2023-05-23T03:57:55.132Z,14.8
2023-05-23T03:59:56.896Z,14.7
2023-05-23T04:04:00.756Z,14.9
2023-05-23T04:10:09.178Z,14.9
2023-05-23T04:11:11.686Z,14.8
2023-05-23T04:13:13.468Z,14.9
2023-05-23T04:15:16.899Z,14.9
2023-05-23T04:17:17.106Z,14.9
2023-05-23T04:19:22.194Z,14.9
2023-05-23T04:21:23.916Z,15
2023-05-23T04:23:25.738Z,14.9
2023-05-23T04:25:27.528Z,14.7
2023-05-23T04:27:29.333Z,14.7
2023-05-23T04:29:31.138Z,14.5
2023-05-23T04:33:37.962Z,14.5
2023-05-23T04:35:40.019Z,14.4
2023-05-23T04:37:41.592Z,14.5
2023-05-23T04:41:45.188Z,14.4
2023-05-23T04:43:46.992Z,14.4
2023-05-23T04:45:48.769Z,14.3
2023-05-23T04:47:53.927Z,14.3
2023-05-23T05:07:15.796Z,13.8
2023-05-23T05:11:19.357Z,13.8
2023-05-23T05:13:21.183Z,13.8
2023-05-23T05:15:26.237Z,13.9
2023-05-23T05:17:28.055Z,13.9
2023-05-23T05:19:29.923Z,13.8
2023-05-23T05:21:31.634Z,13.8
2023-05-23T05:23:33.434Z,13.7
2023-05-23T05:25:35.205Z,13.7
2023-05-23T05:27:36.986Z,13.6
2023-05-23T05:29:42.020Z,13.7
2023-05-23T05:31:43.859Z,13.8
2023-05-23T05:33:47.170Z,13.8
2023-05-23T05:35:48.906Z,13.9
2023-05-23T05:37:50.715Z,13.6
2023-05-23T05:39:52.481Z,13.7
2023-05-23T05:41:54.303Z,13.6
2023-05-23T05:43:59.373Z,13.6
2023-05-23T05:48:03.035Z,13.5
2023-05-23T05:50:04.753Z,13.6
2023-05-23T05:52:06.536Z,13.7
2023-05-23T06:00:16.940Z,13.2
2023-05-23T06:02:18.784Z,13.2
2023-05-23T06:03:21.385Z,13.5
2023-05-23T06:05:23.068Z,13.5
2023-05-23T06:07:24.838Z,13.4
2023-05-23T06:11:32.438Z,13.1
2023-05-23T06:13:33.476Z,13.2
2023-05-23T06:15:35.274Z,13.3
2023-05-23T06:17:37.061Z,13.4
2023-05-23T06:19:38.952Z,13.5
2023-05-23T06:21:40.639Z,13.7
2023-05-23T06:23:42.434Z,13.5
2023-05-23T06:25:47.460Z,13.2
2023-05-23T06:27:49.246Z,13.2
2023-05-23T06:29:51.045Z,13.1
2023-05-23T06:31:52.884Z,13.2
2023-05-23T06:33:54.627Z,13.1
2023-05-23T06:37:58.200Z,13.6
2023-05-23T06:42:05.042Z,14
2023-05-23T06:50:12.164Z,14.3
2023-05-23T07:15:07.148Z,15.5
2023-05-23T07:17:09.010Z,15.9
2023-05-23T07:21:15.768Z,15.7
2023-05-23T07:23:17.576Z,15.6
2023-05-23T07:25:19.365Z,15.4
2023-05-23T07:27:21.180Z,15.1
2023-05-23T07:29:22.991Z,15
2023-05-23T07:31:24.904Z,14.8
2023-05-23T07:33:26.624Z,14.8
2023-05-23T07:35:31.646Z,14.8
2023-05-23T07:37:33.466Z,14.5
2023-05-23T07:39:35.295Z,14.2
2023-05-23T07:41:37.092Z,14.1
2023-05-23T07:43:38.914Z,14.5
2023-05-23T07:47:42.528Z,14.1
2023-05-23T07:49:47.570Z,14.1
2023-05-23T07:51:49.364Z,14.3
2023-05-23T07:53:51.184Z,14.4
2023-05-23T07:54:53.671Z,14.9
2023-05-23T07:56:55.485Z,15.3
2023-05-23T07:58:57.268Z,15.7
2023-05-23T08:00:59.078Z,16.1
2023-05-23T08:03:04.186Z,16.3
2023-05-23T08:05:05.952Z,15.8
2023-05-23T08:13:13.209Z,14.9
2023-05-23T08:15:14.998Z,15
2023-05-23T08:17:20.246Z,15.5
2023-05-23T08:21:23.664Z,15
2023-05-23T08:23:25.503Z,15.2
2023-05-23T08:25:27.310Z,15.5
2023-05-23T08:27:29.109Z,15.6
2023-05-23T08:29:30.898Z,15.9
2023-05-23T08:31:37.770Z,17.1
2023-05-23T08:33:37.776Z,17.2
2023-05-23T08:35:39.592Z,16.9
2023-05-23T08:37:41.410Z,16.6
2023-05-23T08:39:43.199Z,15.7
2023-05-23T08:43:46.836Z,15.4
2023-05-23T08:47:53.740Z,15.2
2023-05-23T08:49:55.556Z,15.2
2023-05-23T08:50:58.042Z,14.9
2023-05-23T08:52:59.916Z,15
2023-05-23T09:07:15.761Z,15.2
2023-05-23T09:09:17.587Z,15.3
2023-05-23T09:11:19.404Z,15.8
2023-05-23T09:13:24.443Z,17.2
2023-05-23T09:15:26.294Z,17.1
2023-05-23T09:17:28.137Z,17.2
2023-05-23T09:19:29.954Z,16.5
2023-05-23T09:21:31.708Z,16.2
2023-05-23T09:23:33.533Z,16.6
2023-05-23T09:25:35.334Z,17.5
2023-05-23T09:27:40.380Z,17.1
2023-05-23T09:29:42.222Z,17
2023-05-23T09:31:44.034Z,17.1
2023-05-23T09:33:45.819Z,17.4
2023-05-23T09:35:47.622Z,17.4
2023-05-23T09:37:49.433Z,18.3
2023-05-23T09:39:51.240Z,18.5
2023-05-23T09:41:56.211Z,18.7
2023-05-23T09:43:58.024Z,18.9
2023-05-23T09:45:59.758Z,19.3
2023-05-23T09:47:02.149Z,19.4
2023-05-23T09:51:05.536Z,19.2
2023-05-23T09:53:07.251Z,19.5
2023-05-23T09:55:12.125Z,19.5
2023-05-23T09:57:13.806Z,19.3
2023-05-23T10:03:18.902Z,17.4
2023-05-23T10:13:30.526Z,18.8
2023-05-23T10:17:33.959Z,18.3
2023-05-23T10:23:42.198Z,18.6
2023-05-23T10:25:43.892Z,18.3
2023-05-23T10:27:45.627Z,17.9
2023-05-23T10:29:47.333Z,17.9
2023-05-23T10:31:49.012Z,17.9
2023-05-23T10:33:50.692Z,18.6
2023-05-23T10:35:52.438Z,19.1
2023-05-23T10:37:57.283Z,18
2023-05-23T10:39:58.975Z,17.8
2023-05-23T10:42:00.686Z,17.9
2023-05-23T10:46:30.878Z,18.9
2023-05-23T10:48:32.484Z,19.1
2023-05-23T10:50:37.475Z,18.8
2023-05-23T10:52:39.055Z,18.9
2023-05-23T10:54:40.743Z,17.9
2023-05-23T10:56:42.438Z,18
2023-05-23T10:58:44.176Z,18.1
2023-05-23T11:02:47.604Z,18.5
2023-05-23T11:06:54.137Z,18.5
2023-05-23T11:08:55.826Z,19
2023-05-23T11:10:57.556Z,19.3
2023-05-23T11:12:59.318Z,18.9
2023-05-23T11:15:00.964Z,18.8
2023-05-23T11:19:07.536Z,17.3
2023-05-23T11:21:09.210Z,16.9
2023-05-23T11:31:19.501Z,18.3
2023-05-23T11:33:24.562Z,17.8
2023-05-23T11:35:26.353Z,17.9
2023-05-23T11:37:28.179Z,18.1
2023-05-23T11:52:46.034Z,18.8
2023-05-23T12:00:56.342Z,18.4
2023-05-23T12:15:12.221Z,16.8
2023-05-23T12:17:14.017Z,16.9
2023-05-23T12:19:15.843Z,17.4
2023-05-23T12:23:19.455Z,18.6
2023-05-23T12:25:21.253Z,20.2
2023-05-23T12:27:23.074Z,20.3
2023-05-23T12:29:28.144Z,20.4
2023-05-23T12:31:29.968Z,19.5
2023-05-23T12:36:41.939Z,17.4
2023-05-23T13:11:16.287Z,18
2023-05-23T13:13:18.095Z,17.6
2023-05-23T13:15:19.912Z,17.5
2023-05-23T13:17:21.742Z,18.1
2023-05-23T13:21:25.343Z,18.5
2023-05-23T13:23:27.157Z,19
2023-05-23T13:25:32.227Z,17.8
2023-05-23T13:27:34.042Z,17.3
2023-05-23T13:32:40.239Z,18.1
2023-05-23T13:40:51.493Z,18.3
2023-05-23T13:53:04.524Z,18.3
2023-05-23T13:57:08.200Z,18.7
2023-05-23T13:59:10.004Z,18.6
2023-05-23T14:01:11.809Z,18.5
2023-05-23T14:11:24.107Z,18
2023-05-23T14:13:25.948Z,17.7
2023-05-23T14:15:27.754Z,17.8
2023-05-23T14:21:36.365Z,17.6
2023-05-23T14:23:38.201Z,17.5
2023-05-23T14:28:08.541Z,17.5
2023-05-23T14:30:10.381Z,17.5
2023-05-23T14:34:17.147Z,17.3
2023-05-23T14:36:18.964Z,17.5
2023-05-23T14:38:20.782Z,17.3
2023-05-23T14:40:22.588Z,17.2
2023-05-23T14:42:24.399Z,17.4
2023-05-23T14:46:28.097Z,17
2023-05-23T14:50:34.888Z,16.6
2023-05-23T14:52:36.721Z,16.4
2023-05-23T15:06:52.687Z,17.6
2023-05-23T15:10:56.283Z,17.3
2023-05-23T15:12:58.110Z,17.6
2023-05-23T15:17:05.017Z,17.4
2023-05-23T15:19:06.832Z,17.2
2023-05-23T15:22:18.354Z,17.2
2023-05-23T15:24:12.941Z,17.4
2023-05-23T15:26:14.777Z,17.3
2023-05-23T15:28:16.582Z,17.2
2023-05-23T15:30:21.686Z,17.1
2023-05-23T15:32:23.592Z,17.4
2023-05-23T15:34:25.319Z,17.6
2023-05-23T15:36:27.111Z,17
2023-05-23T15:40:30.741Z,17.6
2023-05-23T15:42:32.539Z,17.5
2023-05-23T15:46:39.504Z,18
2023-05-23T15:50:43.354Z,17.7
2023-05-23T15:52:44.885Z,17.3
2023-05-23T16:02:57.267Z,17.4
2023-05-23T16:07:00.854Z,17
2023-05-23T16:09:02.671Z,17
2023-05-23T16:13:09.543Z,17.3
2023-05-23T16:18:15.818Z,17.2
2023-05-23T16:20:17.581Z,17.4
2023-05-23T16:24:21.149Z,17.5
2023-05-23T16:26:26.208Z,17.3
2023-05-23T16:28:28.032Z,17
2023-05-23T16:30:29.862Z,16.8
2023-05-23T16:34:33.462Z,16.5
2023-05-23T16:36:35.286Z,16.5
2023-05-23T16:38:37.105Z,16.5
2023-05-23T16:40:42.419Z,16.6
2023-05-23T16:42:44.041Z,16.7
2023-05-23T16:44:45.893Z,16.4
2023-05-23T16:48:49.409Z,16.2
2023-05-23T16:50:51.245Z,16.2
2023-05-23T16:52:53.063Z,16.2
2023-05-23T16:54:58.124Z,15.7
2023-05-23T16:59:01.758Z,15.7
2023-05-23T17:01:03.658Z,15.8
2023-05-23T17:03:05.463Z,16.1
2023-05-23T17:05:07.197Z,16.3
2023-05-23T17:11:15.888Z,15.7
2023-05-23T17:16:23.686Z,15.8
2023-05-23T17:18:25.401Z,15.5
2023-05-23T17:20:27.305Z,16
2023-05-23T17:22:32.270Z,15.9
2023-05-23T17:30:39.547Z,15.6
2023-05-23T17:38:50.029Z,15.6
2023-05-23T17:40:51.899Z,15.5
2023-05-23T17:42:53.657Z,15.8
2023-05-23T17:55:07.780Z,15.2
2023-05-23T17:57:09.576Z,14.6
2023-05-23T17:59:11.408Z,14.7
2023-05-23T18:01:13.280Z,14.9
2023-05-23T18:05:20.066Z,14.7
2023-05-23T18:07:21.881Z,14.5
2023-05-23T18:11:52.336Z,14.5
2023-05-23T18:15:55.914Z,14.5
2023-05-23T18:18:01.012Z,14.3
2023-05-23T18:20:02.850Z,14.1
2023-05-23T18:22:04.594Z,14.2
2023-05-23T18:24:06.402Z,13.9
2023-05-23T18:26:08.213Z,14.1
2023-05-23T18:28:09.982Z,14
2023-05-23T18:30:11.819Z,14.2
2023-05-23T18:32:16.882Z,13.9
2023-05-23T18:34:18.666Z,14
2023-05-23T18:36:20.474Z,14.1
2023-05-23T18:38:22.307Z,13.9
2023-05-23T18:40:39.470Z,14
2023-05-23T18:46:32.742Z,13.6
2023-05-23T18:50:36.330Z,13.6
2023-05-23T18:58:45.317Z,13.3
2023-05-23T19:00:48.571Z,13.4
2023-05-23T19:02:50.545Z,13.5
2023-05-23T19:04:52.159Z,13.5
2023-05-23T19:05:54.713Z,13.4
2023-05-23T19:07:56.497Z,13.2
2023-05-23T19:09:58.284Z,13.2
2023-05-23T19:16:06.952Z,13.1
2023-05-23T19:20:10.480Z,13.1
2023-05-23T19:22:12.276Z,13
2023-05-23T19:26:16.488Z,12.9
2023-05-23T19:28:20.880Z,12.9
2023-05-23T19:30:22.667Z,13
2023-05-23T19:32:24.489Z,12.8
2023-05-23T19:34:26.235Z,12.7
2023-05-23T19:36:28.017Z,12.6
2023-05-23T19:38:29.792Z,12.6
2023-05-23T19:40:31.601Z,12.4
2023-05-23T19:42:36.609Z,12.4
2023-05-23T19:44:38.376Z,12.5
2023-05-23T19:46:40.156Z,12.4
2023-05-23T19:50:44.087Z,12.4
2023-05-23T19:56:52.322Z,12.3
2023-05-23T19:58:54.101Z,12.4
2023-05-23T20:00:55.877Z,12.3
2023-05-23T20:01:58.434Z,12.3
2023-05-23T20:04:00.207Z,12.2
2023-05-23T20:06:01.930Z,12.2
2023-05-23T20:08:03.740Z,12
2023-05-23T20:10:08.749Z,12
2023-05-23T20:14:12.298Z,12
2023-05-23T20:16:14.103Z,12
2023-05-23T20:18:15.824Z,12
2023-05-23T20:20:17.659Z,12.3
2023-05-23T20:22:19.426Z,12
2023-05-23T20:24:24.421Z,12
2023-05-23T20:26:26.190Z,11.8
2023-05-23T20:28:27.988Z,11.7
2023-05-23T20:30:29.801Z,11.7
2023-05-23T20:32:31.564Z,11.7
2023-05-23T20:34:33.331Z,11.6
2023-05-23T20:36:35.128Z,11.5
2023-05-23T20:38:40.131Z,11.4
2023-05-23T20:46:47.303Z,11.2
2023-05-23T20:48:49.056Z,11.2
2023-05-23T20:50:50.800Z,11.3
2023-05-23T20:52:55.819Z,11.1
2023-05-23T20:54:57.614Z,11.3
2023-05-23T20:56:59.383Z,11.1
2023-05-23T20:58:01.897Z,11.1
2023-05-23T21:02:05.512Z,11
2023-05-23T21:06:12.239Z,10.9
2023-05-23T21:08:14.004Z,10.9
2023-05-23T21:10:15.789Z,10.8
2023-05-23T21:24:31.397Z,10.5
2023-05-23T21:26:33.152Z,10.4
2023-05-23T21:28:34.906Z,10.5
2023-05-23T21:30:36.703Z,10.5
2023-05-23T21:32:38.483Z,10.4
2023-05-23T21:34:43.442Z,10.4
2023-05-23T21:40:48.704Z,10.3
2023-05-23T21:42:50.470Z,10.3
2023-05-23T21:44:52.213Z,10.2
2023-05-23T21:46:53.983Z,10.4
2023-05-23T21:51:00.698Z,10.4
2023-05-23T21:53:02.476Z,10.2
2023-05-23T21:55:31.116Z,10.3
2023-05-23T22:17:56.857Z,10
2023-05-23T22:19:58.573Z,9.9
2023-05-23T22:24:02.073Z,10
2023-05-23T22:26:03.807Z,9.9
2023-05-23T22:28:05.547Z,10
2023-05-23T22:30:10.504Z,9.9
2023-05-23T22:32:12.257Z,9.9
2023-05-23T22:34:14.016Z,9.8
2023-05-23T22:36:15.734Z,9.8
2023-05-23T22:40:19.211Z,9.8
2023-05-23T22:42:20.909Z,9.7
2023-05-23T22:44:25.889Z,9.6
2023-05-23T22:46:27.697Z,9.7
2023-05-23T22:48:29.360Z,9.8
2023-05-23T23:01:45.531Z,9.6
2023-05-23T23:03:47.254Z,9.5
2023-05-23T23:05:48.972Z,9.6
2023-05-23T23:07:52.261Z,9.6
2023-05-23T23:09:53.956Z,9.6
2023-05-23T23:14:00.621Z,9.5
2023-05-23T23:16:02.404Z,9.6
2023-05-23T23:18:04.130Z,9.5
2023-05-23T23:20:05.868Z,9.5
2023-05-23T23:22:07.533Z,9.5
2023-05-23T23:24:09.263Z,9.6
2023-05-23T23:26:14.267Z,9.5
2023-05-23T23:28:15.959Z,9.5
2023-05-23T23:30:17.699Z,9.6
2023-05-23T23:32:19.419Z,9.6
2023-05-23T23:34:21.142Z,9.5
2023-05-23T23:36:22.858Z,9.6
2023-05-23T23:38:24.601Z,9.6
2023-05-23T23:40:29.539Z,9.6
2023-05-23T23:42:31.286Z,9.4
2023-05-23T23:44:33.010Z,9.4
2023-05-23T23:45:35.500Z,9.4
2023-05-23T23:55:47.334Z,9.4
